createdAt,value
2022-11-05T00:00:18.364Z,10.60
2022-11-05T00:03:02.873Z,10.50
2022-11-05T00:05:48.682Z,10.60
2022-11-05T00:08:34.409Z,10.50
2022-11-05T00:11:04.042Z,10.30
2022-11-05T00:13:49.478Z,10.40
2022-11-05T00:16:34.853Z,10.50
2022-11-05T00:19:11.474Z,10.40
2022-11-05T00:21:57.927Z,10.50
2022-11-05T00:24:44.149Z,10.40
2022-11-05T00:27:13.561Z,10.40
2022-11-05T00:29:41.807Z,10.60
2022-11-05T00:32:09.977Z,10.50
2022-11-05T00:34:38.068Z,10.60
2022-11-05T00:37:06.354Z,10.50
2022-11-05T00:39:34.386Z,10.50
2022-11-05T00:42:19.867Z,10.50
2022-11-05T00:45:04.587Z,10.30
2022-11-05T00:47:51.642Z,10.30
2022-11-05T00:50:21.679Z,10.40
2022-11-05T00:52:58.218Z,10.50
2022-11-05T00:55:29.934Z,10.40
2022-11-05T00:57:58.677Z,10.50
2022-11-05T01:00:29.911Z,10.50
2022-11-05T01:03:02.892Z,10.30
2022-11-05T01:05:32.219Z,10.40
2022-11-05T01:08:02.376Z,10.50
2022-11-05T01:10:30.977Z,10.40
2022-11-05T01:12:59.558Z,10.40
2022-11-05T01:15:29.189Z,10.20
2022-11-05T01:17:57.295Z,10.40
2022-11-05T01:20:25.440Z,10.20
2022-11-05T01:22:53.503Z,10.10
2022-11-05T01:25:22.121Z,10.30
2022-11-05T01:27:50.200Z,10.40
2022-11-05T01:30:18.491Z,10.40
2022-11-05T01:32:47.910Z,10.40
2022-11-05T01:35:17.816Z,10.20
2022-11-05T01:37:46.829Z,10.30
2022-11-05T01:40:17.035Z,10.10
2022-11-05T01:42:45.601Z,10.10
2022-11-05T01:45:16.905Z,10.10
2022-11-05T01:47:56.268Z,10.20
2022-11-05T01:50:31.395Z,10.10
2022-11-05T01:53:05.029Z,10.10
2022-11-05T01:55:37.935Z,10.00
2022-11-05T01:58:08.318Z,10.30
2022-11-05T02:00:37.482Z,10.30
2022-11-05T02:03:07.398Z,10.50
2022-11-05T02:05:36.322Z,10.40
2022-11-05T02:08:04.644Z,10.30
2022-11-05T02:10:34.225Z,10.40
2022-11-05T02:13:03.738Z,10.30
2022-11-05T02:15:53.054Z,10.40
2022-11-05T02:18:32.816Z,10.30
2022-11-05T02:21:27.891Z,10.10
2022-11-05T02:24:32.804Z,10.10
2022-11-05T02:27:12.937Z,10.20
2022-11-05T02:30:24.975Z,10.20
2022-11-05T02:33:24.341Z,10.00
2022-11-05T02:36:29.621Z,10.00
2022-11-05T02:39:08.625Z,10.10
2022-11-05T02:41:48.602Z,10.10
2022-11-05T02:44:27.736Z,10.00
2022-11-05T02:47:05.254Z,10.00
2022-11-05T02:49:41.587Z,10.00
2022-11-05T02:52:16.396Z,10.10
2022-11-05T02:54:48.817Z,10.20
2022-11-05T02:57:20.152Z,10.20
2022-11-05T02:59:48.422Z,10.10
2022-11-05T03:02:18.096Z,10.10
2022-11-05T03:04:46.363Z,10.10
2022-11-05T03:07:30.016Z,10.10
2022-11-05T03:10:28.646Z,10.10
2022-11-05T03:13:10.133Z,10.10
2022-11-05T03:15:49.641Z,10.20
2022-11-05T03:18:27.251Z,10.20
2022-11-05T03:21:03.704Z,10.30
2022-11-05T03:23:37.984Z,10.10
2022-11-05T03:26:11.627Z,10.00
2022-11-05T03:28:44.303Z,10.00
2022-11-05T03:31:15.336Z,10.00
2022-11-05T03:33:46.424Z,10.30
2022-11-05T03:36:19.665Z,10.30
2022-11-05T03:38:53.062Z,10.40
2022-11-05T03:41:22.754Z,10.20
2022-11-05T03:43:55.571Z,10.20
2022-11-05T03:46:29.294Z,10.30
2022-11-05T03:49:01.050Z,10.30
2022-11-05T03:51:43.357Z,10.10
2022-11-05T03:54:12.291Z,10.20
2022-11-05T03:56:46.951Z,10.30
2022-11-05T03:59:16.049Z,10.30
2022-11-05T04:01:44.724Z,10.10
2022-11-05T04:04:14.383Z,10.00
2022-11-05T04:06:59.862Z,10.00
2022-11-05T04:09:45.239Z,10.10
2022-11-05T04:12:30.094Z,10.10
2022-11-05T04:14:58.317Z,10.00
2022-11-05T04:17:25.443Z,9.90
2022-11-05T04:20:12.282Z,10.00
2022-11-05T04:22:57.838Z,10.00
2022-11-05T04:25:25.973Z,10.00
2022-11-05T04:27:59.436Z,9.90
2022-11-05T04:30:27.491Z,10.00
2022-11-05T04:33:00.580Z,10.00
2022-11-05T04:35:31.332Z,10.00
2022-11-05T04:38:00.124Z,9.90
2022-11-05T04:40:28.542Z,10.00
2022-11-05T04:42:57.466Z,10.00
2022-11-05T04:45:27.122Z,10.00
2022-11-05T04:47:55.359Z,10.00
2022-11-05T04:50:23.942Z,10.00
2022-11-05T04:52:53.588Z,10.10
2022-11-05T04:55:22.188Z,10.00
2022-11-05T04:57:51.187Z,10.10
2022-11-05T05:00:20.737Z,10.10
2022-11-05T05:02:49.412Z,10.10
2022-11-05T05:05:17.534Z,10.10
2022-11-05T05:07:45.981Z,10.00
2022-11-05T05:10:15.601Z,10.00
2022-11-05T05:12:43.807Z,10.10
2022-11-05T05:15:12.023Z,10.10
2022-11-05T05:17:40.297Z,10.10
2022-11-05T05:20:26.328Z,10.00
2022-11-05T05:22:55.152Z,10.00
2022-11-05T05:25:24.962Z,9.90
2022-11-05T05:27:53.505Z,10.00
2022-11-05T05:30:21.741Z,10.20
2022-11-05T05:32:49.857Z,10.30
2022-11-05T05:35:18.500Z,10.10
2022-11-05T05:37:46.567Z,10.20
2022-11-05T05:40:14.739Z,10.20
2022-11-05T05:42:44.362Z,10.30
2022-11-05T05:45:13.437Z,10.30
2022-11-05T05:47:41.507Z,10.40
2022-11-05T05:50:09.809Z,10.20
2022-11-05T05:52:37.843Z,10.40
2022-11-05T05:55:06.604Z,10.30
2022-11-05T05:57:35.499Z,10.20
2022-11-05T06:00:05.808Z,10.20
2022-11-05T06:02:34.280Z,10.10
2022-11-05T06:05:02.605Z,10.00
2022-11-05T06:07:36.896Z,10.00
2022-11-05T06:10:06.347Z,9.90
2022-11-05T06:12:34.617Z,9.90
2022-11-05T06:15:05.065Z,9.80
2022-11-05T06:17:34.586Z,9.90
2022-11-05T06:20:02.783Z,9.90
2022-11-05T06:22:30.944Z,9.90
2022-11-05T06:24:59.057Z,9.80
2022-11-05T06:27:27.128Z,9.90
2022-11-05T06:29:55.502Z,9.90
2022-11-05T06:32:25.170Z,9.90
2022-11-05T06:34:53.551Z,9.90
2022-11-05T06:37:21.663Z,9.90
2022-11-05T06:39:49.973Z,10.00
2022-11-05T06:42:19.219Z,10.00
2022-11-05T06:44:48.081Z,10.00
2022-11-05T06:47:16.200Z,10.00
2022-11-05T06:49:45.920Z,9.90
2022-11-05T06:52:15.376Z,10.10
2022-11-05T06:54:43.974Z,10.00
2022-11-05T06:57:13.052Z,10.10
2022-11-05T06:59:41.641Z,10.10
2022-11-05T07:02:13.549Z,10.10
2022-11-05T07:04:41.841Z,10.00
2022-11-05T07:07:11.607Z,10.10
2022-11-05T07:09:43.005Z,10.00
2022-11-05T07:12:11.216Z,10.00
2022-11-05T07:14:39.327Z,10.00
2022-11-05T07:17:07.546Z,10.00
2022-11-05T07:19:38.370Z,10.00
2022-11-05T07:22:06.585Z,10.00
2022-11-05T07:24:36.194Z,10.10
2022-11-05T07:27:04.674Z,10.00
2022-11-05T07:29:32.930Z,10.00
2022-11-05T07:32:01.101Z,10.20
2022-11-05T07:34:29.184Z,10.30
2022-11-05T07:36:57.295Z,10.40
2022-11-05T07:39:25.990Z,10.30
2022-11-05T07:41:57.698Z,10.30
2022-11-05T07:44:25.985Z,10.20
2022-11-05T07:46:54.150Z,10.30
2022-11-05T07:49:23.900Z,10.10
2022-11-05T07:51:52.065Z,10.20
2022-11-05T07:54:20.236Z,10.20
2022-11-05T07:56:48.658Z,10.30
2022-11-05T07:59:18.229Z,10.30
2022-11-05T08:01:46.626Z,10.20
2022-11-05T08:04:17.532Z,10.20
2022-11-05T08:06:45.641Z,10.20
2022-11-05T08:09:13.931Z,10.20
2022-11-05T08:11:42.367Z,10.10
2022-11-05T08:14:10.459Z,10.00
2022-11-05T08:16:39.915Z,10.10
2022-11-05T08:19:07.958Z,10.00
2022-11-05T08:21:35.994Z,9.90
2022-11-05T08:24:04.073Z,9.80
2022-11-05T08:26:32.154Z,10.00
2022-11-05T08:29:00.370Z,9.80
2022-11-05T08:31:29.332Z,9.90
2022-11-05T08:34:02.466Z,9.90
2022-11-05T08:36:31.059Z,9.90
2022-11-05T08:38:59.308Z,10.10
2022-11-05T08:41:28.014Z,10.10
2022-11-05T08:43:56.540Z,10.20
2022-11-05T08:46:24.687Z,10.20
2022-11-05T08:48:53.195Z,10.20
2022-11-05T08:51:22.715Z,10.20
2022-11-05T08:53:50.893Z,10.20
2022-11-05T08:56:19.543Z,10.40
2022-11-05T08:58:48.008Z,10.50
2022-11-05T09:01:16.228Z,10.40
2022-11-05T09:03:44.603Z,10.50
2022-11-05T09:06:13.047Z,10.50
2022-11-05T09:08:42.689Z,10.50
2022-11-05T09:11:10.813Z,10.60
2022-11-05T09:13:39.085Z,10.60
2022-11-05T09:16:08.150Z,10.50
2022-11-05T09:18:36.300Z,10.50
2022-11-05T09:21:04.561Z,10.50
2022-11-05T09:23:32.744Z,10.50
2022-11-05T09:26:02.330Z,10.40
2022-11-05T09:28:31.625Z,10.60
2022-11-05T09:31:00.634Z,10.50
2022-11-05T09:33:29.145Z,10.50
2022-11-05T09:36:00.847Z,10.50
2022-11-05T09:38:29.344Z,10.70
2022-11-05T09:41:00.660Z,10.60
2022-11-05T09:43:35.724Z,10.60
2022-11-05T09:46:10.484Z,10.60
2022-11-05T09:48:40.192Z,10.60
2022-11-05T09:51:08.497Z,10.50
2022-11-05T09:53:40.978Z,10.60
2022-11-05T09:56:20.884Z,10.60
2022-11-05T09:58:54.394Z,10.60
2022-11-05T10:01:27.185Z,10.60
2022-11-05T10:03:58.458Z,10.50
2022-11-05T10:06:28.526Z,10.50
2022-11-05T10:09:03.847Z,10.40
2022-11-05T10:11:38.260Z,10.50
2022-11-05T10:14:15.054Z,10.50
2022-11-05T10:16:47.005Z,10.50
2022-11-05T10:19:22.065Z,10.60
2022-11-05T10:22:06.176Z,10.60
2022-11-05T10:24:35.261Z,10.90
2022-11-05T10:27:03.900Z,11.10
2022-11-05T10:29:36.180Z,11.60
2022-11-05T10:32:07.314Z,15.20
2022-11-05T10:34:39.284Z,16.30
2022-11-05T10:37:07.523Z,19.80
2022-11-05T10:39:36.329Z,19.60
2022-11-05T10:42:21.896Z,16.40
2022-11-05T10:44:58.452Z,14.70
2022-11-05T10:47:57.196Z,13.80
2022-11-05T10:50:27.907Z,13.50
2022-11-05T10:53:00.110Z,13.50
2022-11-05T10:55:30.944Z,13.30
2022-11-05T10:58:10.511Z,13.20
2022-11-05T11:00:40.182Z,12.80
2022-11-05T11:03:42.460Z,12.50
2022-11-05T11:06:24.110Z,12.30
2022-11-05T11:08:53.801Z,12.10
2022-11-05T11:11:31.392Z,11.80
2022-11-05T11:14:06.347Z,11.70
2022-11-05T11:16:39.351Z,11.70
2022-11-05T11:19:26.550Z,11.60
2022-11-05T11:22:13.916Z,11.60
2022-11-05T11:24:43.646Z,11.60
2022-11-05T11:27:16.230Z,11.70
2022-11-05T11:29:49.725Z,11.60
2022-11-05T11:32:21.765Z,11.50
2022-11-05T11:34:54.562Z,11.50
2022-11-05T11:37:27.343Z,11.60
2022-11-05T11:39:58.927Z,11.50
2022-11-05T11:42:32.270Z,11.40
2022-11-05T11:45:02.875Z,11.40
2022-11-05T11:47:34.098Z,11.40
2022-11-05T11:50:03.100Z,11.40
2022-11-05T11:52:33.024Z,11.30
2022-11-05T11:55:22.109Z,11.30
2022-11-05T11:57:52.229Z,11.30
2022-11-05T12:00:21.810Z,11.50
2022-11-05T12:03:11.736Z,11.50
2022-11-05T12:05:48.564Z,11.60
2022-11-05T12:08:38.834Z,11.40
2022-11-05T12:11:16.518Z,11.40
2022-11-05T12:13:58.471Z,11.40
2022-11-05T12:16:56.278Z,11.60
2022-11-05T12:19:47.684Z,11.60
2022-11-05T12:22:25.140Z,11.50
2022-11-05T12:25:16.279Z,11.60
2022-11-05T12:28:03.232Z,11.50
2022-11-05T12:30:40.677Z,11.50
2022-11-05T12:33:31.247Z,11.30
2022-11-05T12:36:09.910Z,11.50
2022-11-05T12:39:05.447Z,11.50
2022-11-05T12:41:38.995Z,11.50
2022-11-05T12:44:18.654Z,11.60
2022-11-05T12:46:59.429Z,11.70
2022-11-05T12:49:39.602Z,11.80
2022-11-05T12:52:36.975Z,11.70
2022-11-05T12:55:13.358Z,11.70
2022-11-05T12:57:44.161Z,11.70
2022-11-05T13:00:19.265Z,11.50
2022-11-05T13:02:53.921Z,11.60
2022-11-05T13:05:36.044Z,11.60
2022-11-05T13:08:09.656Z,11.60
2022-11-05T13:10:42.592Z,11.60
2022-11-05T13:13:16.638Z,11.40
2022-11-05T13:15:51.871Z,11.30
2022-11-05T13:18:25.533Z,11.30
2022-11-05T13:20:55.669Z,11.30
2022-11-05T13:23:32.560Z,11.20
2022-11-05T13:26:07.138Z,11.30
2022-11-05T13:28:45.381Z,11.30
2022-11-05T13:31:19.742Z,11.40
2022-11-05T13:33:50.544Z,11.40
2022-11-05T13:36:40.503Z,11.40
2022-11-05T13:39:17.897Z,11.30
2022-11-05T13:42:00.105Z,11.50
2022-11-05T13:44:57.863Z,11.50
2022-11-05T13:47:39.873Z,11.40
2022-11-05T13:50:29.955Z,11.20
2022-11-05T13:53:13.513Z,11.30
2022-11-05T13:55:58.333Z,11.30
2022-11-05T13:58:42.767Z,11.30
2022-11-05T14:01:20.461Z,11.20
2022-11-05T14:03:50.448Z,11.20
2022-11-05T14:06:27.241Z,11.10
2022-11-05T14:09:00.584Z,11.20
2022-11-05T14:11:35.081Z,11.10
2022-11-05T14:14:05.495Z,11.20
2022-11-05T14:16:50.938Z,11.20
2022-11-05T14:19:33.855Z,11.10
2022-11-05T14:22:39.074Z,11.10
2022-11-05T14:25:43.862Z,11.00
2022-11-05T14:28:59.507Z,11.00
2022-11-05T14:32:02.625Z,11.00
2022-11-05T14:34:41.395Z,11.00
2022-11-05T14:37:31.595Z,11.00
2022-11-05T14:40:22.869Z,11.00
2022-11-05T14:42:54.739Z,11.00
2022-11-05T14:45:30.385Z,11.10
2022-11-05T14:48:00.700Z,10.90
2022-11-05T14:50:34.558Z,10.90
2022-11-05T14:53:11.572Z,10.90
2022-11-05T14:55:42.360Z,10.90
2022-11-05T14:58:31.642Z,10.90
2022-11-05T15:01:03.193Z,10.90
2022-11-05T15:03:46.893Z,10.90
2022-11-05T15:06:31.187Z,10.90
2022-11-05T15:09:30.006Z,10.90
2022-11-05T15:12:15.402Z,10.90
2022-11-05T15:14:54.754Z,10.90
2022-11-05T15:17:29.939Z,10.90
2022-11-05T15:20:07.881Z,10.80
2022-11-05T15:22:41.384Z,10.80
2022-11-05T15:25:18.616Z,10.90
2022-11-05T15:28:06.182Z,10.80
2022-11-05T15:30:34.793Z,10.90
2022-11-05T15:33:17.839Z,10.90
2022-11-05T15:35:46.012Z,11.00
2022-11-05T15:38:29.114Z,10.90
2022-11-05T15:41:05.392Z,10.90
2022-11-05T15:43:33.677Z,10.80
2022-11-05T15:46:04.044Z,11.00
2022-11-05T15:48:34.483Z,10.90
2022-11-05T15:51:02.679Z,10.80
2022-11-05T15:54:15.613Z,10.80
2022-11-05T15:56:38.182Z,10.70
2022-11-05T15:59:08.193Z,10.70
2022-11-05T16:01:39.116Z,10.60
2022-11-05T16:04:17.969Z,10.50
2022-11-05T16:06:48.592Z,10.50
2022-11-05T16:09:23.113Z,10.50
2022-11-05T16:12:10.432Z,10.60
2022-11-05T16:14:38.619Z,10.50
2022-11-05T16:17:18.036Z,10.50
2022-11-05T16:19:48.020Z,10.40
2022-11-05T16:22:16.324Z,10.40
2022-11-05T16:24:44.929Z,10.30
2022-11-05T16:27:19.593Z,10.20
2022-11-05T16:29:51.587Z,10.20
2022-11-05T16:32:28.619Z,10.20
2022-11-05T16:35:01.389Z,10.10
2022-11-05T16:37:32.763Z,10.10
2022-11-05T16:40:03.934Z,9.90
2022-11-05T16:42:40.998Z,10.00
2022-11-05T16:45:13.707Z,9.90
2022-11-05T16:47:42.362Z,9.80
2022-11-05T16:50:24.999Z,9.70
2022-11-05T16:52:53.396Z,9.60
2022-11-05T16:55:32.391Z,9.60
2022-11-05T16:58:00.878Z,9.50
2022-11-05T17:00:32.600Z,9.50
2022-11-05T17:03:01.494Z,9.50
2022-11-05T17:05:32.888Z,9.40
2022-11-05T17:08:03.864Z,9.40
2022-11-05T17:10:32.458Z,9.50
2022-11-05T17:13:01.685Z,9.30
2022-11-05T17:15:36.559Z,9.30
2022-11-05T17:18:06.699Z,9.20
2022-11-05T17:20:41.060Z,9.10
2022-11-05T17:23:10.845Z,9.10
2022-11-05T17:25:39.731Z,9.10
2022-11-05T17:28:09.733Z,9.10
2022-11-05T17:30:41.500Z,9.00
2022-11-05T17:33:10.679Z,9.00
2022-11-05T17:35:42.026Z,8.90
2022-11-05T17:38:12.154Z,8.80
2022-11-05T17:40:40.899Z,8.80
2022-11-05T17:43:10.237Z,8.80
2022-11-05T17:45:43.925Z,8.80
2022-11-05T17:48:12.755Z,8.70
2022-11-05T17:50:43.425Z,8.70
2022-11-05T17:53:14.035Z,8.60
2022-11-05T17:55:42.735Z,8.60
2022-11-05T17:58:11.624Z,8.60
2022-11-05T18:00:40.194Z,8.60
2022-11-05T18:03:08.769Z,8.60
2022-11-05T18:05:38.035Z,8.60
2022-11-05T18:08:08.922Z,8.70
2022-11-05T18:10:38.135Z,8.60
2022-11-05T18:13:06.599Z,8.50
2022-11-05T18:15:35.532Z,8.50
2022-11-05T18:18:03.856Z,8.40
2022-11-05T18:20:32.430Z,8.40
2022-11-05T18:23:00.797Z,8.40
2022-11-05T18:25:32.023Z,8.40
2022-11-05T18:28:00.184Z,8.50
2022-11-05T18:30:28.837Z,8.50
2022-11-05T18:32:56.937Z,8.50
2022-11-05T18:35:25.088Z,8.50
2022-11-05T18:37:53.354Z,8.40
2022-11-05T18:40:21.537Z,8.40
2022-11-05T18:42:50.939Z,8.30
2022-11-05T18:45:19.114Z,8.30
2022-11-05T18:47:47.193Z,8.20
2022-11-05T18:50:15.654Z,8.10
2022-11-05T18:52:43.831Z,8.10
2022-11-05T18:55:12.307Z,8.10
2022-11-05T18:57:40.628Z,8.00
2022-11-05T19:00:11.698Z,7.90
2022-11-05T19:02:40.018Z,7.80
2022-11-05T19:07:57.299Z,7.80
2022-11-05T19:10:25.549Z,7.80
2022-11-05T19:12:53.845Z,7.80
2022-11-05T19:15:23.364Z,7.70
2022-11-05T19:17:51.434Z,7.70
2022-11-05T19:20:19.585Z,7.70
2022-11-05T19:22:47.762Z,7.80
2022-11-05T19:25:15.964Z,7.70
2022-11-05T19:27:44.217Z,7.70
2022-11-05T19:30:12.738Z,7.80
2022-11-05T19:32:42.373Z,7.80
2022-11-05T19:35:10.723Z,8.00
2022-11-05T19:37:38.923Z,8.10
2022-11-05T19:40:08.491Z,8.00
2022-11-05T19:42:38.857Z,7.90
2022-11-05T19:45:38.193Z,7.80
2022-11-05T19:47:58.858Z,7.80
2022-11-05T19:50:27.687Z,7.60
2022-11-05T19:52:55.821Z,7.50
2022-11-05T19:55:24.861Z,7.40
2022-11-05T19:57:53.187Z,7.40
2022-11-05T20:00:22.751Z,7.40
2022-11-05T20:02:50.980Z,7.40
2022-11-05T20:05:20.684Z,7.40
2022-11-05T20:07:52.748Z,7.20
2022-11-05T20:10:23.552Z,7.20
2022-11-05T20:12:51.971Z,7.20
2022-11-05T20:15:20.265Z,7.30
2022-11-05T20:17:52.031Z,7.20
2022-11-05T20:20:22.331Z,7.20
2022-11-05T20:22:52.780Z,7.20
2022-11-05T20:25:20.929Z,7.30
2022-11-05T20:27:49.101Z,7.20
2022-11-05T20:30:17.405Z,7.20
2022-11-05T20:32:45.510Z,7.30
2022-11-05T20:35:13.625Z,7.20
2022-11-05T20:37:43.335Z,7.20
2022-11-05T20:40:14.009Z,7.20
2022-11-05T20:42:42.876Z,7.20
2022-11-05T20:45:11.786Z,7.20
2022-11-05T20:47:40.087Z,7.10
2022-11-05T20:50:11.203Z,7.10
2022-11-05T20:52:41.086Z,7.10
2022-11-05T20:55:11.187Z,7.10
2022-11-05T20:57:39.521Z,7.20
2022-11-05T21:00:09.272Z,7.20
2022-11-05T21:02:39.602Z,7.10
2022-11-05T21:05:08.772Z,7.00
2022-11-05T21:07:37.417Z,7.00
2022-11-05T21:10:06.602Z,7.00
2022-11-05T21:12:36.250Z,7.00
2022-11-05T21:15:04.613Z,6.90
2022-11-05T21:17:32.768Z,6.90
2022-11-05T21:20:00.956Z,6.90
2022-11-05T21:22:29.156Z,6.90
2022-11-05T21:24:57.814Z,6.90
2022-11-05T21:27:26.093Z,6.90
2022-11-05T21:29:55.611Z,6.90
2022-11-05T21:32:23.693Z,6.80
2022-11-05T21:34:51.907Z,6.90
2022-11-05T21:37:20.370Z,6.80
2022-11-05T21:39:48.469Z,6.70
2022-11-05T21:42:16.665Z,6.80
2022-11-05T21:44:44.910Z,6.70
2022-11-05T21:47:14.781Z,6.70
2022-11-05T21:49:44.421Z,6.70
2022-11-05T21:52:30.358Z,6.60
2022-11-05T21:55:16.214Z,6.60
2022-11-05T21:58:01.616Z,6.60
2022-11-05T22:00:30.473Z,6.60
2022-11-05T22:03:00.611Z,6.50
2022-11-05T22:05:29.246Z,6.40
2022-11-05T22:07:57.483Z,6.30
2022-11-05T22:10:25.879Z,6.30
2022-11-05T22:12:54.116Z,6.40
2022-11-05T22:15:22.371Z,6.60
2022-11-05T22:17:51.584Z,6.70
2022-11-05T22:20:21.306Z,6.70
2022-11-05T22:22:49.685Z,6.70
2022-11-05T22:25:17.957Z,6.70
2022-11-05T22:27:46.226Z,6.80
2022-11-05T22:30:15.692Z,6.80
2022-11-05T22:32:43.950Z,7.00
2022-11-05T22:35:12.245Z,7.00
2022-11-05T22:37:42.277Z,7.10
2022-11-05T22:40:11.012Z,7.00
2022-11-05T22:42:39.069Z,7.00
2022-11-05T22:45:08.086Z,6.90
2022-11-05T22:47:36.222Z,7.00
2022-11-05T22:50:04.863Z,7.00
2022-11-05T22:52:33.388Z,6.70
2022-11-05T22:55:05.244Z,6.60
2022-11-05T22:57:34.612Z,6.50
2022-11-05T23:00:02.856Z,6.50
2022-11-05T23:02:32.202Z,6.40
2022-11-05T23:05:00.442Z,6.50
2022-11-05T23:07:46.134Z,6.50
2022-11-05T23:10:33.321Z,6.50
2022-11-05T23:13:01.607Z,6.40
2022-11-05T23:15:47.625Z,6.40
2022-11-05T23:18:33.186Z,6.40
2022-11-05T23:21:22.859Z,6.60
2022-11-05T23:24:06.760Z,6.70
2022-11-05T23:26:54.037Z,6.70
2022-11-05T23:29:25.298Z,6.70
2022-11-05T23:32:11.752Z,6.60
2022-11-05T23:34:40.156Z,6.60
2022-11-05T23:37:26.277Z,6.50
2022-11-05T23:39:54.423Z,6.60
2022-11-05T23:42:41.529Z,6.60
2022-11-05T23:45:29.246Z,6.60
2022-11-05T23:48:15.550Z,6.60
2022-11-05T23:50:45.624Z,6.50
2022-11-05T23:53:14.934Z,6.50
2022-11-05T23:55:43.826Z,6.50
2022-11-05T23:58:13.691Z,6.50
